Terminal Aerodrome Forecast
Issued by NWS

Home | Current Version | Previous Version | Text Only | Print | Product List | Glossary On
Versions: 1 2 3 4 5 6 7 8 9 10 11 12 13 14
000
FTUS44 KLIX 181720
TAFHDC
TAF
KHDC 181720Z 1818/1918 30005KT P6SM VCTS SCT040CB
     FM190100 00000KT P6SM SCT025
     FM191700 VRB03KT P6SM BKN030=

USA.gov is the U.S. government's official web portal to all federal, state and local government web resources and services.